createdAt,value
2019-03-05T00:01:28.019Z,3.80
2019-03-05T00:05:38.766Z,4.20
2019-03-05T00:09:49.095Z,4.80
2019-03-05T00:13:59.971Z,3.50
2019-03-05T00:18:10.701Z,4.23
2019-03-05T00:22:21.438Z,4.00
2019-03-05T00:26:37.575Z,3.50
2019-03-05T00:31:14.113Z,3.80
2019-03-05T00:36:15.620Z,3.70
2019-03-05T00:41:04.787Z,4.60
2019-03-05T00:45:53.654Z,3.90
2019-03-05T00:50:29.585Z,5.07
2019-03-05T00:54:58.743Z,4.90
2019-03-05T00:59:28.224Z,5.53
2019-03-05T01:04:03.656Z,4.97
2019-03-05T01:08:13.899Z,5.30
2019-03-05T01:12:25.118Z,5.07
2019-03-05T01:16:35.930Z,5.03
2019-03-05T01:20:46.878Z,4.23
2019-03-05T01:24:57.067Z,4.30
2019-03-05T01:29:07.438Z,5.33
2019-03-05T01:33:17.602Z,5.30
2019-03-05T01:37:28.298Z,5.80
2019-03-05T01:41:47.125Z,6.20
2019-03-05T01:46:00.907Z,6.27
2019-03-05T01:50:14.687Z,5.17
2019-03-05T01:54:24.950Z,5.33
2019-03-05T01:58:35.415Z,5.43
2019-03-05T02:02:46.132Z,6.70
2019-03-05T02:06:56.600Z,5.77
2019-03-05T02:11:07.003Z,6.67
2019-03-05T02:15:17.357Z,5.20
2019-03-05T02:19:45.116Z,5.20
2019-03-05T02:24:22.206Z,5.73
2019-03-05T02:28:38.530Z,4.47
2019-03-05T02:33:20.448Z,5.80
2019-03-05T02:38:11.183Z,5.43
2019-03-05T02:42:48.349Z,5.10
2019-03-05T02:47:30.406Z,4.90
2019-03-05T02:51:57.074Z,5.00
2019-03-05T02:56:35.098Z,5.70
2019-03-05T03:00:59.446Z,5.90
2019-03-05T03:05:19.221Z,4.93
2019-03-05T03:10:14.131Z,4.93
2019-03-05T03:14:25.068Z,4.50
2019-03-05T03:18:35.182Z,5.23
2019-03-05T03:22:45.335Z,5.03
2019-03-05T03:26:57.076Z,5.27
2019-03-05T03:31:08.350Z,5.73
2019-03-05T03:35:18.942Z,4.60
2019-03-05T03:39:29.127Z,4.97
2019-03-05T03:43:39.180Z,4.50
2019-03-05T03:47:49.569Z,4.90
2019-03-05T03:51:59.354Z,4.20
2019-03-05T03:56:10.031Z,4.83
2019-03-05T04:00:23.274Z,4.73
2019-03-05T04:04:33.519Z,4.67
2019-03-05T04:08:43.929Z,5.10
2019-03-05T04:12:54.270Z,4.53
2019-03-05T04:17:04.784Z,4.87
2019-03-05T04:21:14.989Z,4.23
2019-03-05T04:25:25.463Z,4.87
2019-03-05T04:29:35.914Z,4.87
2019-03-05T04:33:45.900Z,3.83
2019-03-05T04:37:56.147Z,4.27
2019-03-05T04:42:07.769Z,4.10
2019-03-05T04:46:37.457Z,4.03
2019-03-05T04:50:59.802Z,3.70
2019-03-05T04:55:11.454Z,4.27
2019-03-05T04:59:21.836Z,4.07
2019-03-05T05:03:32.117Z,4.00
2019-03-05T05:07:42.113Z,3.87
2019-03-05T05:11:53.755Z,4.13
2019-03-05T05:16:04.105Z,3.73
2019-03-05T05:20:15.016Z,3.53
2019-03-05T05:24:25.385Z,3.63
2019-03-05T05:28:35.423Z,4.30
2019-03-05T05:32:45.732Z,3.17
2019-03-05T05:36:56.224Z,3.40
2019-03-05T05:41:06.224Z,4.03
2019-03-05T05:45:19.484Z,3.70
2019-03-05T05:49:29.709Z,4.30
2019-03-05T05:53:40.325Z,3.60
2019-03-05T05:57:50.468Z,4.00
2019-03-05T06:02:00.825Z,3.93
2019-03-05T06:06:11.615Z,4.03
2019-03-05T06:10:22.281Z,4.03
2019-03-05T06:14:32.704Z,3.67
2019-03-05T06:18:44.307Z,3.50
2019-03-05T06:22:55.898Z,4.20
2019-03-05T06:27:06.744Z,3.70
2019-03-05T06:31:17.211Z,4.17
2019-03-05T06:35:27.270Z,4.07
2019-03-05T06:39:37.173Z,3.60
2019-03-05T06:43:47.523Z,3.40
2019-03-05T06:47:58.110Z,3.40
2019-03-05T06:52:08.375Z,3.37
2019-03-05T06:56:18.632Z,3.70
2019-03-05T07:00:47.721Z,3.70
2019-03-05T07:05:00.775Z,3.70
2019-03-05T07:09:28.256Z,3.50
2019-03-05T07:13:38.598Z,3.90
2019-03-05T07:17:52.539Z,3.87
2019-03-05T07:22:31.291Z,3.47
2019-03-05T07:26:41.183Z,3.40
2019-03-05T07:30:51.260Z,3.87
2019-03-05T07:35:01.606Z,3.23
2019-03-05T07:39:15.333Z,3.10
2019-03-05T07:43:36.009Z,3.40
2019-03-05T07:47:37.319Z,5.70
2019-03-05T07:51:47.458Z,3.67
2019-03-05T07:55:57.569Z,3.50
2019-03-05T08:00:08.611Z,3.70
2019-03-05T08:04:19.299Z,3.30
2019-03-05T08:09:02.332Z,3.07
2019-03-05T08:14:00.240Z,3.17
2019-03-05T08:18:10.474Z,3.87
2019-03-05T08:22:21.439Z,3.40
2019-03-05T08:26:31.507Z,3.70
2019-03-05T08:30:41.606Z,3.23
2019-03-05T08:34:52.180Z,3.20
2019-03-05T08:39:02.285Z,4.33
2019-03-05T08:43:13.982Z,3.70
2019-03-05T08:47:23.838Z,3.77
2019-03-05T08:51:34.059Z,3.43
2019-03-05T08:55:44.245Z,3.87
2019-03-05T08:59:55.135Z,3.80
2019-03-05T09:04:05.255Z,4.20
2019-03-05T09:08:15.794Z,3.13
2019-03-05T09:12:25.655Z,3.10
2019-03-05T09:16:36.314Z,4.00
2019-03-05T09:20:47.370Z,3.43
2019-03-05T09:24:57.555Z,4.13
2019-03-05T09:29:08.063Z,3.30
2019-03-05T09:33:19.369Z,4.10
2019-03-05T09:37:30.480Z,4.00
2019-03-05T09:41:40.799Z,3.63
2019-03-05T09:45:51.091Z,3.53
2019-03-05T09:50:01.254Z,3.77
2019-03-05T09:54:12.077Z,3.60
2019-03-05T09:58:23.066Z,3.83
2019-03-05T10:02:33.602Z,3.20
2019-03-05T10:06:43.604Z,3.70
2019-03-05T10:10:54.405Z,3.37
2019-03-05T10:15:04.727Z,3.47
2019-03-05T10:19:15.800Z,3.93
2019-03-05T10:23:25.992Z,10.10
2019-03-05T10:27:36.666Z,5.07
2019-03-05T10:31:46.915Z,5.00
2019-03-05T10:35:57.516Z,5.80
2019-03-05T10:40:07.556Z,5.67
2019-03-05T10:44:38.318Z,6.10
2019-03-05T10:53:13.415Z,5.33
2019-03-05T10:57:23.459Z,5.97
2019-03-05T11:01:32.977Z,6.47
2019-03-05T11:05:44.205Z,6.00
2019-03-05T11:09:55.147Z,7.77
2019-03-05T11:14:05.025Z,5.97
2019-03-05T11:18:14.838Z,6.07
2019-03-05T11:22:25.205Z,6.30
2019-03-05T11:26:34.637Z,6.17
2019-03-05T11:30:44.346Z,5.80
2019-03-05T11:34:53.791Z,5.90
2019-03-05T11:39:03.434Z,6.10
2019-03-05T11:43:16.475Z,6.43
2019-03-05T11:47:25.973Z,9.20
2019-03-05T11:51:35.361Z,11.07
2019-03-05T11:55:45.140Z,7.57
2019-03-05T11:59:54.472Z,7.53
2019-03-05T12:04:05.191Z,7.70
2019-03-05T12:08:14.808Z,6.10
2019-03-05T12:12:24.541Z,6.23
2019-03-05T12:16:33.893Z,6.63
2019-03-05T12:20:55.534Z,6.43
2019-03-05T12:25:05.001Z,5.37
2019-03-05T12:29:14.468Z,6.10
2019-03-05T12:33:23.971Z,5.33
2019-03-05T12:37:33.705Z,5.37
2019-03-05T12:41:43.110Z,5.30
2019-03-05T12:45:53.267Z,4.93
2019-03-05T12:50:02.663Z,5.37
2019-03-05T12:54:12.424Z,4.10
2019-03-05T12:58:21.824Z,4.70
2019-03-05T13:02:32.368Z,5.53
2019-03-05T13:06:41.813Z,5.67
2019-03-05T13:10:53.308Z,4.80
2019-03-05T13:15:02.794Z,4.40
2019-03-05T13:19:12.607Z,5.07
2019-03-05T13:23:21.908Z,5.10
2019-03-05T13:27:31.233Z,4.93
2019-03-05T13:31:42.169Z,5.73
2019-03-05T13:35:51.496Z,5.40
2019-03-05T13:40:00.857Z,5.73
2019-03-05T13:44:32.083Z,5.00
2019-03-05T13:49:17.953Z,5.77
2019-03-05T13:53:59.757Z,4.77
2019-03-05T13:58:18.437Z,5.60
2019-03-05T14:03:01.565Z,6.20
2019-03-05T14:08:24.365Z,5.70
2019-03-05T14:12:34.370Z,5.20
2019-03-05T14:16:44.286Z,7.40
2019-03-05T14:20:53.958Z,7.57
2019-03-05T14:25:03.866Z,7.67
2019-03-05T14:29:13.254Z,6.77
2019-03-05T14:33:22.859Z,7.80
2019-03-05T14:37:33.023Z,6.40
2019-03-05T14:41:42.604Z,8.30
2019-03-05T14:45:52.281Z,14.33
2019-03-05T14:50:02.102Z,12.27
2019-03-05T14:54:11.880Z,13.20
2019-03-05T14:58:21.410Z,9.00
2019-03-05T15:02:31.666Z,9.20
2019-03-05T15:06:41.397Z,8.17
2019-03-05T15:10:50.837Z,8.30
2019-03-05T15:15:00.452Z,7.70
2019-03-05T15:19:20.994Z,8.00
2019-03-05T15:23:21.739Z,7.83
2019-03-05T15:27:31.125Z,7.27
2019-03-05T15:31:47.905Z,8.50
2019-03-05T15:35:57.310Z,6.50
2019-03-05T15:40:07.544Z,6.77
2019-03-05T15:44:16.938Z,7.77
2019-03-05T15:48:26.744Z,7.80
2019-03-05T15:52:36.153Z,9.10
2019-03-05T15:56:45.710Z,8.80
2019-03-05T16:00:55.169Z,8.20
2019-03-05T16:05:11.677Z,8.73
2019-03-05T16:09:20.704Z,9.80
2019-03-05T16:13:32.548Z,7.53
2019-03-05T16:17:41.535Z,9.80
2019-03-05T16:21:51.352Z,8.90
2019-03-05T16:26:00.748Z,12.67
2019-03-05T16:30:13.592Z,9.40
2019-03-05T16:34:50.156Z,12.60
2019-03-05T16:39:31.727Z,13.43
2019-03-05T16:43:58.753Z,14.30
2019-03-05T16:48:26.432Z,14.03
2019-03-05T16:52:50.487Z,15.93
2019-03-05T16:57:08.923Z,14.00
2019-03-05T17:01:43.152Z,13.97
2019-03-05T17:06:11.251Z,18.63
2019-03-05T17:10:36.828Z,16.17
2019-03-05T17:14:46.315Z,14.97
2019-03-05T17:18:55.902Z,12.57
2019-03-05T17:23:06.374Z,11.37
2019-03-05T17:27:15.902Z,12.27
2019-03-05T17:31:25.825Z,13.53
2019-03-05T17:35:35.624Z,12.00
2019-03-05T17:39:46.129Z,11.93
2019-03-05T17:43:56.255Z,11.03
2019-03-05T17:48:06.147Z,11.40
2019-03-05T17:52:15.800Z,10.50
2019-03-05T17:56:25.555Z,11.30
2019-03-05T18:00:37.073Z,9.20
2019-03-05T18:04:46.848Z,12.70
2019-03-05T18:08:56.595Z,12.07
2019-03-05T18:13:06.373Z,10.20
2019-03-05T18:17:16.922Z,9.20
2019-03-05T18:21:26.836Z,9.77
2019-03-05T18:25:36.444Z,8.53
2019-03-05T18:29:46.307Z,8.30
2019-03-05T18:33:56.245Z,9.10
2019-03-05T18:38:06.322Z,8.50
2019-03-05T18:42:15.850Z,6.47
2019-03-05T18:46:26.004Z,7.90
2019-03-05T18:50:35.984Z,8.10
2019-03-05T18:54:45.418Z,7.00
2019-03-05T18:58:55.155Z,6.77
2019-03-05T19:03:04.868Z,6.60
2019-03-05T19:07:16.423Z,5.60
2019-03-05T19:11:26.340Z,4.77
2019-03-05T19:15:36.265Z,6.33
2019-03-05T19:19:45.945Z,5.67
2019-03-05T19:23:55.678Z,4.53
2019-03-05T19:28:05.767Z,5.20
2019-03-05T19:32:16.307Z,4.43
2019-03-05T19:36:26.209Z,4.97
2019-03-05T19:40:37.158Z,4.00
2019-03-05T19:44:46.561Z,4.17
2019-03-05T19:48:56.260Z,4.80
2019-03-05T19:53:05.906Z,4.70
2019-03-05T19:57:15.580Z,4.60
2019-03-05T20:01:31.844Z,3.93
2019-03-05T20:05:41.691Z,4.07
2019-03-05T20:09:50.978Z,3.90
2019-03-05T20:14:00.565Z,4.17
2019-03-05T20:18:10.031Z,3.43
2019-03-05T20:22:21.280Z,3.50
2019-03-05T20:26:30.770Z,3.53
2019-03-05T20:30:41.491Z,4.23
2019-03-05T20:34:51.150Z,4.33
2019-03-05T20:39:00.855Z,3.20
2019-03-05T20:43:11.964Z,3.40
2019-03-05T20:47:22.026Z,3.53
2019-03-05T20:51:31.312Z,3.67
2019-03-05T20:55:41.009Z,3.57
2019-03-05T20:59:50.631Z,3.50
2019-03-05T21:04:00.760Z,3.10
2019-03-05T21:08:10.521Z,3.30
2019-03-05T21:12:21.361Z,2.70
2019-03-05T21:16:30.801Z,2.63
2019-03-05T21:20:40.518Z,3.10
2019-03-05T21:24:49.953Z,2.70
2019-03-05T21:28:59.700Z,2.83
2019-03-05T21:33:09.363Z,2.80
2019-03-05T21:37:19.204Z,3.33
2019-03-05T21:41:28.570Z,3.13
2019-03-05T21:45:39.943Z,3.57
2019-03-05T21:49:49.399Z,2.93
2019-03-05T21:53:59.311Z,3.13
2019-03-05T21:58:09.145Z,3.40
2019-03-05T22:02:20.765Z,3.17
2019-03-05T22:06:30.626Z,2.50
2019-03-05T22:10:40.172Z,3.07
2019-03-05T22:14:49.737Z,2.80
2019-03-05T22:18:59.451Z,2.80
2019-03-05T22:23:09.149Z,2.77
2019-03-05T22:27:18.567Z,3.27
2019-03-05T22:31:28.466Z,2.77
2019-03-05T22:35:38.058Z,2.30
2019-03-05T22:39:47.863Z,2.70
2019-03-05T22:43:57.247Z,3.00
2019-03-05T22:48:07.441Z,3.17
2019-03-05T22:52:16.941Z,2.57
2019-03-05T22:56:27.014Z,2.50
2019-03-05T23:01:01.495Z,2.80
2019-03-05T23:05:13.570Z,2.67
2019-03-05T23:09:26.948Z,2.20
2019-03-05T23:13:37.150Z,2.90
2019-03-05T23:17:46.851Z,2.87
2019-03-05T23:21:56.840Z,2.57
2019-03-05T23:26:06.934Z,2.53
2019-03-05T23:30:17.723Z,3.17
2019-03-05T23:34:27.328Z,2.50
2019-03-05T23:38:37.346Z,2.40
2019-03-05T23:42:46.968Z,2.17
2019-03-05T23:46:56.663Z,2.73
2019-03-05T23:51:06.215Z,2.40
2019-03-05T23:55:16.766Z,2.93
2019-03-05T23:59:26.778Z,2.73
